createdAt,value
2022-09-01T00:04:27.147Z,17.20
2022-09-01T00:09:28.679Z,17.20
2022-09-01T00:14:31.978Z,17.20
2022-09-01T00:19:33.957Z,17.23
2022-09-01T00:24:35.920Z,17.25
2022-09-01T00:29:37.353Z,17.23
2022-09-01T00:34:38.921Z,17.23
2022-09-01T00:39:40.234Z,17.21
2022-09-01T00:44:41.714Z,17.21
2022-09-01T00:49:44.962Z,17.20
2022-09-01T00:54:50.460Z,17.15
2022-09-01T00:59:54.507Z,17.09
2022-09-01T01:04:59.322Z,17.01
2022-09-01T01:10:00.784Z,16.96
2022-09-01T01:15:03.452Z,16.90
2022-09-01T01:20:25.391Z,16.80
2022-09-01T01:25:27.654Z,16.71
2022-09-01T01:30:33.695Z,16.66
2022-09-01T01:35:35.287Z,16.62
2022-09-01T01:40:38.250Z,16.60
2022-09-01T01:45:39.998Z,16.57
2022-09-01T01:50:42.929Z,16.51
2022-09-01T01:55:49.474Z,16.47
2022-09-01T02:00:52.049Z,16.41
2022-09-01T02:05:54.213Z,16.38
2022-09-01T02:10:55.702Z,16.36
2022-09-01T02:15:59.580Z,16.32
2022-09-01T02:21:01.513Z,16.31
2022-09-01T02:26:16.077Z,16.30
2022-09-01T02:31:20.869Z,16.25
2022-09-01T02:36:25.009Z,16.20
2022-09-01T02:41:29.977Z,16.16
2022-09-01T02:46:32.664Z,16.13
2022-09-01T02:51:34.441Z,16.09
2022-09-01T02:56:36.374Z,16.05
2022-09-01T03:01:37.893Z,16.02
2022-09-01T03:06:39.743Z,15.98
2022-09-01T03:11:43.150Z,15.96
2022-09-01T03:16:44.616Z,15.96
2022-09-01T03:21:46.357Z,15.95
2022-09-01T03:26:51.051Z,15.94
2022-09-01T03:31:53.341Z,15.94
2022-09-01T03:36:54.839Z,15.92
2022-09-01T03:42:03.466Z,15.92
2022-09-01T03:47:05.003Z,15.98
2022-09-01T03:52:08.862Z,15.99
2022-09-01T03:57:10.632Z,15.98
2022-09-01T04:02:15.369Z,15.96
2022-09-01T04:07:19.380Z,15.94
2022-09-01T04:12:20.999Z,15.91
2022-09-01T04:17:44.873Z,15.85
2022-09-01T04:22:47.494Z,15.81
2022-09-01T04:27:49.949Z,15.82
2022-09-01T04:32:52.882Z,15.80
2022-09-01T04:37:55.461Z,15.75
2022-09-01T04:42:56.809Z,15.72
2022-09-01T04:48:00.659Z,15.70
2022-09-01T04:53:04.470Z,15.69
2022-09-01T04:58:10.303Z,15.69
2022-09-01T05:03:14.070Z,15.75
2022-09-01T05:08:47.793Z,15.79
2022-09-01T05:14:00.437Z,15.83
2022-09-01T05:19:02.180Z,15.87
2022-09-01T05:24:08.940Z,15.90
2022-09-01T05:29:13.333Z,15.94
2022-09-01T05:34:26.242Z,15.99
2022-09-01T05:39:28.512Z,16.05
2022-09-01T05:44:30.853Z,16.12
2022-09-01T05:49:33.088Z,16.21
2022-09-01T05:54:37.900Z,16.27
2022-09-01T05:59:41.400Z,16.33
2022-09-01T06:04:49.673Z,16.36
2022-09-01T06:09:59.991Z,16.42
2022-09-01T06:15:01.879Z,16.44
2022-09-01T06:20:10.377Z,16.54
2022-09-01T06:25:12.786Z,16.61
2022-09-01T06:30:24.671Z,16.72
2022-09-01T06:35:47.068Z,16.88
2022-09-01T06:40:50.998Z,17.02
2022-09-01T06:45:56.453Z,17.19
2022-09-01T06:51:20.901Z,17.31
2022-09-01T06:56:29.147Z,17.35
2022-09-01T07:01:34.349Z,17.38
2022-09-01T07:12:34.306Z,17.61
2022-09-01T07:17:36.527Z,17.63
2022-09-01T07:28:00.551Z,17.73
2022-09-01T07:43:52.842Z,18.24
2022-09-01T07:54:31.602Z,18.33
2022-09-01T07:59:35.252Z,18.45
2022-09-01T08:04:44.016Z,18.68
2022-09-01T08:09:45.390Z,18.83
2022-09-01T08:15:12.786Z,18.80
2022-09-01T08:20:14.674Z,18.87
2022-09-01T08:25:26.405Z,19.04
2022-09-01T08:30:30.635Z,19.21
2022-09-01T08:35:32.582Z,19.36
2022-09-01T08:40:34.050Z,19.53
2022-09-01T08:45:39.801Z,19.63
2022-09-01T08:50:43.814Z,19.78
2022-09-01T08:55:51.590Z,19.90
2022-09-01T09:00:59.098Z,20.04
2022-09-01T09:06:11.122Z,20.18
2022-09-01T09:11:31.248Z,20.34
2022-09-01T09:16:37.655Z,20.46
2022-09-01T09:21:43.274Z,20.53
2022-09-01T09:26:48.397Z,20.71
2022-09-01T09:32:01.248Z,20.76
2022-09-01T09:42:33.550Z,20.91
2022-09-01T09:47:43.745Z,20.95
2022-09-01T09:52:46.877Z,21.04
2022-09-01T09:57:50.937Z,21.09
2022-09-01T10:03:01.475Z,21.21
2022-09-01T10:08:07.773Z,21.34
2022-09-01T10:13:11.679Z,21.44
2022-09-01T10:18:29.033Z,21.52
2022-09-01T10:23:32.796Z,21.52
2022-09-01T10:28:39.119Z,21.51
2022-09-01T10:33:41.079Z,21.52
2022-09-01T10:38:46.870Z,21.70
2022-09-01T10:43:58.730Z,21.72
2022-09-01T10:49:04.629Z,21.85
2022-09-01T10:54:06.901Z,21.99
2022-09-01T11:04:32.338Z,22.04
2022-09-01T11:09:44.245Z,22.13
2022-09-01T11:14:53.693Z,22.23
2022-09-01T11:19:58.314Z,22.41
2022-09-01T11:25:11.793Z,22.60
2022-09-01T11:30:16.506Z,22.86
2022-09-01T11:35:19.874Z,22.93
2022-09-01T11:40:23.764Z,22.91
2022-09-01T11:45:28.311Z,22.89
2022-09-01T11:50:33.784Z,23.04
2022-09-01T11:55:36.816Z,23.26
2022-09-01T12:00:39.709Z,23.32
2022-09-01T12:05:41.104Z,23.38
2022-09-01T12:10:44.300Z,23.31
2022-09-01T12:16:16.356Z,23.26
2022-09-01T12:21:20.654Z,23.13
2022-09-01T12:26:29.034Z,23.16
2022-09-01T12:31:30.489Z,23.27
2022-09-01T12:36:34.773Z,23.26
2022-09-01T12:41:38.965Z,23.16
2022-09-01T12:46:44.876Z,23.01
2022-09-01T12:51:49.257Z,22.90
2022-09-01T12:56:51.257Z,22.99
2022-09-01T13:01:52.764Z,23.05
2022-09-01T13:06:55.328Z,23.32
2022-09-01T13:12:16.209Z,23.52
2022-09-01T13:17:18.281Z,23.58
2022-09-01T13:22:19.614Z,23.50
2022-09-01T13:27:22.365Z,23.49
2022-09-01T13:32:24.916Z,23.47
2022-09-01T13:37:26.338Z,23.36
2022-09-01T13:42:28.549Z,23.29
2022-09-01T13:47:30.996Z,23.37
2022-09-01T13:52:33.030Z,23.77
2022-09-01T13:57:36.497Z,23.93
2022-09-01T14:02:39.496Z,24.09
2022-09-01T14:07:40.862Z,24.10
2022-09-01T14:12:42.609Z,24.11
2022-09-01T14:17:44.490Z,24.12
2022-09-01T14:22:46.597Z,24.17
2022-09-01T14:27:48.858Z,24.11
2022-09-01T14:32:51.305Z,23.90
2022-09-01T14:37:53.990Z,23.68
2022-09-01T14:42:56.077Z,23.52
2022-09-01T14:47:58.633Z,23.32
2022-09-01T14:53:01.073Z,23.15
2022-09-01T14:58:04.173Z,23.00
2022-09-01T15:03:05.594Z,22.92
2022-09-01T15:08:08.060Z,22.85
2022-09-01T15:13:09.479Z,22.74
2022-09-01T15:18:11.078Z,22.65
2022-09-01T15:23:16.920Z,22.59
2022-09-01T15:28:18.387Z,22.58
2022-09-01T15:33:20.064Z,22.59
2022-09-01T15:38:27.155Z,22.59
2022-09-01T15:43:31.412Z,22.60
2022-09-01T15:48:33.541Z,22.59
2022-09-01T15:53:34.955Z,22.55
2022-09-01T15:58:59.462Z,22.48
2022-09-01T16:03:57.823Z,22.41
2022-09-01T16:08:59.268Z,22.28
2022-09-01T16:14:01.602Z,22.21
2022-09-01T16:19:15.823Z,22.14
2022-09-01T16:24:17.274Z,22.11
2022-09-01T16:29:25.153Z,21.95
2022-09-01T16:34:28.627Z,21.82
2022-09-01T16:39:50.663Z,21.79
2022-09-01T16:44:51.994Z,21.68
2022-09-01T16:50:06.271Z,21.63
2022-09-01T16:55:18.417Z,21.64
2022-09-01T17:00:21.009Z,21.63
2022-09-01T17:05:25.337Z,21.58
2022-09-01T17:10:37.129Z,21.51
2022-09-01T17:15:41.604Z,21.42
2022-09-01T17:20:54.964Z,21.36
2022-09-01T17:26:18.592Z,21.32
2022-09-01T17:31:20.548Z,21.28
2022-09-01T17:36:27.939Z,21.24
2022-09-01T17:41:38.898Z,21.19
2022-09-01T17:46:45.379Z,21.11
2022-09-01T17:51:46.784Z,21.03
2022-09-01T17:56:48.112Z,20.95
2022-09-01T18:01:57.275Z,20.87
2022-09-01T18:06:59.220Z,20.79
2022-09-01T18:12:08.293Z,20.68
2022-09-01T18:17:17.330Z,20.58
2022-09-01T18:22:21.622Z,20.48
2022-09-01T18:27:24.389Z,20.38
2022-09-01T18:32:41.486Z,20.27
2022-09-01T18:37:50.159Z,20.18
2022-09-01T18:42:54.665Z,20.09
2022-09-01T18:48:19.333Z,20.00
2022-09-01T18:53:27.531Z,19.94
2022-09-01T18:58:38.568Z,19.87
2022-09-01T19:03:54.994Z,19.80
2022-09-01T19:09:03.944Z,19.74
2022-09-01T19:14:19.101Z,19.71
2022-09-01T19:19:29.781Z,19.68
2022-09-01T19:24:35.472Z,19.63
2022-09-01T19:29:40.837Z,19.57
2022-09-01T19:34:44.966Z,19.53
2022-09-01T19:39:50.863Z,19.46
2022-09-01T19:45:09.523Z,19.36
2022-09-01T19:50:22.539Z,19.25
2022-09-01T19:55:31.100Z,19.17
2022-09-01T20:00:53.437Z,19.09
2022-09-01T20:11:29.880Z,18.89
2022-09-01T20:16:40.406Z,18.83
2022-09-01T20:21:45.934Z,18.74
2022-09-01T20:26:47.284Z,18.68
2022-09-01T20:32:15.914Z,18.64
2022-09-01T20:43:54.264Z,18.51
2022-09-01T20:48:56.876Z,18.49
2022-09-01T20:54:00.360Z,18.43
2022-09-01T20:59:04.750Z,18.36
2022-09-01T21:04:09.217Z,18.30
2022-09-01T21:09:29.855Z,18.25
2022-09-01T21:14:40.668Z,18.16
2022-09-01T21:20:01.455Z,18.09
2022-09-01T21:25:03.886Z,17.98
2022-09-01T21:30:07.300Z,17.93
2022-09-01T21:35:10.088Z,17.91
2022-09-01T21:40:12.168Z,17.90
2022-09-01T21:45:15.303Z,17.88
2022-09-01T21:50:18.294Z,17.85
2022-09-01T21:55:22.857Z,17.81
2022-09-01T22:00:27.046Z,17.77
2022-09-01T22:05:29.391Z,17.73
2022-09-01T22:10:31.792Z,17.69
2022-09-01T22:15:33.142Z,17.63
2022-09-01T22:20:35.127Z,17.57
2022-09-01T22:25:40.075Z,17.53
2022-09-01T22:30:46.278Z,17.48
2022-09-01T22:35:49.020Z,17.44
2022-09-01T22:40:52.612Z,17.36
2022-09-01T22:45:55.034Z,17.23
2022-09-01T22:50:56.506Z,17.10
2022-09-01T22:55:57.904Z,16.96
2022-09-01T23:01:00.319Z,16.92
2022-09-01T23:06:06.607Z,16.91
2022-09-01T23:11:08.103Z,16.87
2022-09-01T23:16:11.082Z,16.79
2022-09-01T23:21:14.126Z,16.68
2022-09-01T23:26:15.915Z,16.58
2022-09-01T23:31:19.030Z,16.49
2022-09-01T23:36:25.723Z,16.47
2022-09-01T23:41:30.965Z,16.48
2022-09-01T23:46:33.768Z,16.49
2022-09-01T23:51:35.549Z,16.45
2022-09-01T23:56:37.593Z,16.38
